sensor_id;sensor_type;location;lat;lon;timestamp;temperature;humidity
14783;DHT22;7483;50.498;12.138;2023-02-15T00:00:12;1.70;99.90
14783;DHT22;7483;50.498;12.138;2023-02-15T00:02:40;1.70;99.90
14783;DHT22;7483;50.498;12.138;2023-02-15T00:05:09;1.70;99.90
14783;DHT22;7483;50.498;12.138;2023-02-15T00:07:37;1.70;99.90
14783;DHT22;7483;50.498;12.138;2023-02-15T00:10:06;1.70;99.90
14783;DHT22;7483;50.498;12.138;2023-02-15T00:12:34;1.60;99.90
14783;DHT22;7483;50.498;12.138;2023-02-15T00:15:04;1.70;99.90
14783;DHT22;7483;50.498;12.138;2023-02-15T00:17:32;1.60;99.90
14783;DHT22;7483;50.498;12.138;2023-02-15T00:20:00;1.60;99.90
14783;DHT22;7483;50.498;12.138;2023-02-15T00:22:28;1.60;99.90
14783;DHT22;7483;50.498;12.138;2023-02-15T00:24:56;1.50;99.90
14783;DHT22;7483;50.498;12.138;2023-02-15T00:27:24;1.40;99.90
14783;DHT22;7483;50.498;12.138;2023-02-15T00:29:52;1.40;99.90
14783;DHT22;7483;50.498;12.138;2023-02-15T00:32:21;1.40;99.90
14783;DHT22;7483;50.498;12.138;2023-02-15T00:34:49;1.40;99.90
14783;DHT22;7483;50.498;12.138;2023-02-15T00:37:17;1.40;99.90
14783;DHT22;7483;50.498;12.138;2023-02-15T00:39:46;1.40;99.90
14783;DHT22;7483;50.498;12.138;2023-02-15T00:42:14;1.40;99.90
14783;DHT22;7483;50.498;12.138;2023-02-15T00:44:42;1.40;99.90
14783;DHT22;7483;50.498;12.138;2023-02-15T00:47:10;1.30;99.90
14783;DHT22;7483;50.498;12.138;2023-02-15T00:49:40;1.30;99.90
14783;DHT22;7483;50.498;12.138;2023-02-15T00:52:08;1.30;99.90
14783;DHT22;7483;50.498;12.138;2023-02-15T00:54:35;1.30;99.90
14783;DHT22;7483;50.498;12.138;2023-02-15T00:57:05;1.30;99.90
14783;DHT22;7483;50.498;12.138;2023-02-15T00:59:33;1.30;99.90
14783;DHT22;7483;50.498;12.138;2023-02-15T01:02:01;1.30;99.90
14783;DHT22;7483;50.498;12.138;2023-02-15T01:04:29;1.20;99.90
14783;DHT22;7483;50.498;12.138;2023-02-15T01:06:58;1.20;99.90
14783;DHT22;7483;50.498;12.138;2023-02-15T01:09:26;1.10;99.90
14783;DHT22;7483;50.498;12.138;2023-02-15T01:11:55;1.10;99.90
14783;DHT22;7483;50.498;12.138;2023-02-15T01:14:25;1.10;99.90
14783;DHT22;7483;50.498;12.138;2023-02-15T01:16:53;1.00;99.90
14783;DHT22;7483;50.498;12.138;2023-02-15T01:19:21;1.00;99.90
14783;DHT22;7483;50.498;12.138;2023-02-15T01:21:49;1.00;99.90
14783;DHT22;7483;50.498;12.138;2023-02-15T01:24:18;0.90;99.90
14783;DHT22;7483;50.498;12.138;2023-02-15T01:26:46;0.90;99.90
14783;DHT22;7483;50.498;12.138;2023-02-15T01:29:14;0.80;99.90
14783;DHT22;7483;50.498;12.138;2023-02-15T01:31:42;0.80;99.90
14783;DHT22;7483;50.498;12.138;2023-02-15T01:34:12;0.70;99.90
14783;DHT22;7483;50.498;12.138;2023-02-15T01:36:40;0.70;99.90
14783;DHT22;7483;50.498;12.138;2023-02-15T01:39:08;0.70;99.90
14783;DHT22;7483;50.498;12.138;2023-02-15T01:41:38;0.60;99.90
14783;DHT22;7483;50.498;12.138;2023-02-15T01:47:17;0.50;99.90
14783;DHT22;7483;50.498;12.138;2023-02-15T01:49:52;0.40;99.90
14783;DHT22;7483;50.498;12.138;2023-02-15T01:52:31;0.40;99.90
14783;DHT22;7483;50.498;12.138;2023-02-15T01:55:01;0.40;99.90
14783;DHT22;7483;50.498;12.138;2023-02-15T01:57:38;0.50;99.90
14783;DHT22;7483;50.498;12.138;2023-02-15T02:00:08;0.40;99.90
14783;DHT22;7483;50.498;12.138;2023-02-15T02:02:40;0.40;99.90
14783;DHT22;7483;50.498;12.138;2023-02-15T02:05:10;0.40;99.90
14783;DHT22;7483;50.498;12.138;2023-02-15T02:07:40;0.30;99.90
14783;DHT22;7483;50.498;12.138;2023-02-15T02:10:13;0.30;99.90
14783;DHT22;7483;50.498;12.138;2023-02-15T02:12:47;0.20;99.90
14783;DHT22;7483;50.498;12.138;2023-02-15T02:15:17;0.20;99.90
14783;DHT22;7483;50.498;12.138;2023-02-15T02:17:56;0.10;99.90
14783;DHT22;7483;50.498;12.138;2023-02-15T02:20:51;0.10;99.90
14783;DHT22;7483;50.498;12.138;2023-02-15T02:23:43;0.10;99.90
14783;DHT22;7483;50.498;12.138;2023-02-15T02:26:48;0.10;99.90
14783;DHT22;7483;50.498;12.138;2023-02-15T02:30:06;0.10;99.90
14783;DHT22;7483;50.498;12.138;2023-02-15T02:33:09;0.00;99.90
14783;DHT22;7483;50.498;12.138;2023-02-15T02:35:56;0.00;99.90
14783;DHT22;7483;50.498;12.138;2023-02-15T02:38:38;0.00;99.90
14783;DHT22;7483;50.498;12.138;2023-02-15T02:41:17;0.00;99.90
14783;DHT22;7483;50.498;12.138;2023-02-15T02:43:57;-0.10;99.90
14783;DHT22;7483;50.498;12.138;2023-02-15T02:46:35;-0.10;99.90
14783;DHT22;7483;50.498;12.138;2023-02-15T02:49:09;0.00;99.90
14783;DHT22;7483;50.498;12.138;2023-02-15T02:51:37;0.00;99.90
14783;DHT22;7483;50.498;12.138;2023-02-15T02:54:06;0.00;99.90
14783;DHT22;7483;50.498;12.138;2023-02-15T02:56:37;0.00;99.90
14783;DHT22;7483;50.498;12.138;2023-02-15T02:59:13;-0.10;99.90
14783;DHT22;7483;50.498;12.138;2023-02-15T03:01:49;-0.10;99.90
14783;DHT22;7483;50.498;12.138;2023-02-15T03:04:25;-0.10;99.90
14783;DHT22;7483;50.498;12.138;2023-02-15T03:06:59;-0.10;99.90
14783;DHT22;7483;50.498;12.138;2023-02-15T03:09:33;-0.10;99.90
14783;DHT22;7483;50.498;12.138;2023-02-15T03:12:13;-0.10;99.90
14783;DHT22;7483;50.498;12.138;2023-02-15T03:14:48;-0.10;99.90
14783;DHT22;7483;50.498;12.138;2023-02-15T03:17:20;-0.10;99.90
14783;DHT22;7483;50.498;12.138;2023-02-15T03:19:54;-0.10;99.90
14783;DHT22;7483;50.498;12.138;2023-02-15T03:22:29;-0.10;99.90
14783;DHT22;7483;50.498;12.138;2023-02-15T03:25:06;-0.20;99.90
14783;DHT22;7483;50.498;12.138;2023-02-15T03:27:39;-0.10;99.90
14783;DHT22;7483;50.498;12.138;2023-02-15T03:30:12;-0.10;99.90
14783;DHT22;7483;50.498;12.138;2023-02-15T03:32:43;-0.10;99.90
14783;DHT22;7483;50.498;12.138;2023-02-15T03:35:16;-0.10;99.90
14783;DHT22;7483;50.498;12.138;2023-02-15T03:37:48;-0.10;99.90
14783;DHT22;7483;50.498;12.138;2023-02-15T03:40:25;-0.10;99.90
14783;DHT22;7483;50.498;12.138;2023-02-15T03:43:18;0.00;99.90
14783;DHT22;7483;50.498;12.138;2023-02-15T03:45:52;0.00;99.90
14783;DHT22;7483;50.498;12.138;2023-02-15T03:48:29;0.00;99.90
14783;DHT22;7483;50.498;12.138;2023-02-15T03:51:04;0.00;99.90
14783;DHT22;7483;50.498;12.138;2023-02-15T03:53:54;0.00;99.90
14783;DHT22;7483;50.498;12.138;2023-02-15T03:56:24;0.00;99.90
14783;DHT22;7483;50.498;12.138;2023-02-15T03:58:52;0.10;99.90
14783;DHT22;7483;50.498;12.138;2023-02-15T04:01:40;0.10;99.90
14783;DHT22;7483;50.498;12.138;2023-02-15T04:04:32;0.10;99.90
14783;DHT22;7483;50.498;12.138;2023-02-15T04:07:05;0.10;99.90
14783;DHT22;7483;50.498;12.138;2023-02-15T04:09:35;0.10;99.90
14783;DHT22;7483;50.498;12.138;2023-02-15T04:12:20;0.10;99.90
14783;DHT22;7483;50.498;12.138;2023-02-15T04:14:48;0.10;99.90
14783;DHT22;7483;50.498;12.138;2023-02-15T04:17:35;0.10;99.90
14783;DHT22;7483;50.498;12.138;2023-02-15T04:20:03;0.10;99.90
14783;DHT22;7483;50.498;12.138;2023-02-15T04:22:51;0.20;99.90
14783;DHT22;7483;50.498;12.138;2023-02-15T04:25:37;0.10;99.90
14783;DHT22;7483;50.498;12.138;2023-02-15T04:28:05;0.10;99.90
14783;DHT22;7483;50.498;12.138;2023-02-15T04:30:34;0.10;99.90
14783;DHT22;7483;50.498;12.138;2023-02-15T04:33:02;0.10;99.90
14783;DHT22;7483;50.498;12.138;2023-02-15T04:35:30;0.10;99.90
14783;DHT22;7483;50.498;12.138;2023-02-15T04:37:59;0.10;99.90
14783;DHT22;7483;50.498;12.138;2023-02-15T04:40:27;0.10;99.90
14783;DHT22;7483;50.498;12.138;2023-02-15T04:42:55;0.10;99.90
14783;DHT22;7483;50.498;12.138;2023-02-15T04:45:23;0.10;99.90
14783;DHT22;7483;50.498;12.138;2023-02-15T04:47:51;0.10;99.90
14783;DHT22;7483;50.498;12.138;2023-02-15T04:50:19;0.10;99.90
14783;DHT22;7483;50.498;12.138;2023-02-15T04:52:47;0.00;99.90
14783;DHT22;7483;50.498;12.138;2023-02-15T04:55:16;0.00;99.90
14783;DHT22;7483;50.498;12.138;2023-02-15T04:57:45;0.00;99.90
14783;DHT22;7483;50.498;12.138;2023-02-15T05:00:14;0.00;99.90
14783;DHT22;7483;50.498;12.138;2023-02-15T05:02:43;-0.10;99.90
14783;DHT22;7483;50.498;12.138;2023-02-15T05:05:11;0.00;99.90
14783;DHT22;7483;50.498;12.138;2023-02-15T05:07:41;0.00;99.90
14783;DHT22;7483;50.498;12.138;2023-02-15T05:10:09;0.00;99.90
14783;DHT22;7483;50.498;12.138;2023-02-15T05:12:39;0.00;99.90
14783;DHT22;7483;50.498;12.138;2023-02-15T05:15:07;0.00;99.90
14783;DHT22;7483;50.498;12.138;2023-02-15T05:17:36;0.00;99.90
14783;DHT22;7483;50.498;12.138;2023-02-15T05:20:05;0.00;99.90
14783;DHT22;7483;50.498;12.138;2023-02-15T05:22:33;0.00;99.90
14783;DHT22;7483;50.498;12.138;2023-02-15T05:25:01;0.00;99.90
14783;DHT22;7483;50.498;12.138;2023-02-15T05:27:48;-0.10;99.90
14783;DHT22;7483;50.498;12.138;2023-02-15T05:30:34;0.00;99.90
14783;DHT22;7483;50.498;12.138;2023-02-15T05:33:03;-0.10;99.90
14783;DHT22;7483;50.498;12.138;2023-02-15T05:35:31;-0.20;99.90
14783;DHT22;7483;50.498;12.138;2023-02-15T05:38:00;-0.20;99.90
14783;DHT22;7483;50.498;12.138;2023-02-15T05:40:28;-0.20;99.90
14783;DHT22;7483;50.498;12.138;2023-02-15T05:42:57;-0.30;99.90
14783;DHT22;7483;50.498;12.138;2023-02-15T05:45:26;-0.20;99.90
14783;DHT22;7483;50.498;12.138;2023-02-15T05:47:53;-0.20;99.90
14783;DHT22;7483;50.498;12.138;2023-02-15T05:50:22;-0.30;99.90
14783;DHT22;7483;50.498;12.138;2023-02-15T05:52:50;-0.30;99.90
14783;DHT22;7483;50.498;12.138;2023-02-15T05:55:18;-0.30;99.90
14783;DHT22;7483;50.498;12.138;2023-02-15T05:57:46;-0.30;99.90
14783;DHT22;7483;50.498;12.138;2023-02-15T06:00:17;-0.20;99.90
14783;DHT22;7483;50.498;12.138;2023-02-15T06:02:45;-0.30;99.90
14783;DHT22;7483;50.498;12.138;2023-02-15T06:05:15;-0.30;99.90
14783;DHT22;7483;50.498;12.138;2023-02-15T06:07:43;-0.20;99.90
14783;DHT22;7483;50.498;12.138;2023-02-15T06:10:12;-0.30;99.90
14783;DHT22;7483;50.498;12.138;2023-02-15T06:12:40;-0.30;99.90
14783;DHT22;7483;50.498;12.138;2023-02-15T06:15:08;-0.30;99.90
14783;DHT22;7483;50.498;12.138;2023-02-15T06:17:37;-0.40;99.90
14783;DHT22;7483;50.498;12.138;2023-02-15T06:20:09;-0.40;99.90
14783;DHT22;7483;50.498;12.138;2023-02-15T06:22:37;-0.40;99.90
14783;DHT22;7483;50.498;12.138;2023-02-15T06:25:05;-0.40;99.90
14783;DHT22;7483;50.498;12.138;2023-02-15T06:27:36;-0.40;99.90
14783;DHT22;7483;50.498;12.138;2023-02-15T06:30:05;-0.40;99.90
14783;DHT22;7483;50.498;12.138;2023-02-15T06:32:35;-0.40;99.90
14783;DHT22;7483;50.498;12.138;2023-02-15T06:35:05;-0.50;99.90
14783;DHT22;7483;50.498;12.138;2023-02-15T06:37:33;-0.50;99.90
14783;DHT22;7483;50.498;12.138;2023-02-15T06:40:01;-0.50;99.90
14783;DHT22;7483;50.498;12.138;2023-02-15T06:42:30;-0.50;99.90
14783;DHT22;7483;50.498;12.138;2023-02-15T06:44:58;-0.50;99.90
14783;DHT22;7483;50.498;12.138;2023-02-15T06:47:27;-0.40;99.90
14783;DHT22;7483;50.498;12.138;2023-02-15T06:49:55;-0.40;99.90
14783;DHT22;7483;50.498;12.138;2023-02-15T06:52:25;-0.40;99.90
14783;DHT22;7483;50.498;12.138;2023-02-15T06:54:54;-0.40;99.90
14783;DHT22;7483;50.498;12.138;2023-02-15T06:57:23;-0.40;99.90
14783;DHT22;7483;50.498;12.138;2023-02-15T06:59:51;-0.30;99.90
14783;DHT22;7483;50.498;12.138;2023-02-15T07:02:19;-0.30;99.90
14783;DHT22;7483;50.498;12.138;2023-02-15T07:04:47;-0.30;99.90
14783;DHT22;7483;50.498;12.138;2023-02-15T07:07:15;-0.20;99.90
14783;DHT22;7483;50.498;12.138;2023-02-15T07:09:44;-0.20;99.90
14783;DHT22;7483;50.498;12.138;2023-02-15T07:12:12;-0.20;99.90
14783;DHT22;7483;50.498;12.138;2023-02-15T07:14:58;-0.10;99.90
14783;DHT22;7483;50.498;12.138;2023-02-15T07:17:26;-0.10;99.90
14783;DHT22;7483;50.498;12.138;2023-02-15T07:20:04;-0.10;99.90
14783;DHT22;7483;50.498;12.138;2023-02-15T07:22:34;-0.10;99.90
14783;DHT22;7483;50.498;12.138;2023-02-15T07:25:07;-0.10;99.90
14783;DHT22;7483;50.498;12.138;2023-02-15T07:27:36;0.00;99.90
14783;DHT22;7483;50.498;12.138;2023-02-15T07:30:06;0.00;99.90
14783;DHT22;7483;50.498;12.138;2023-02-15T07:32:35;0.10;99.90
14783;DHT22;7483;50.498;12.138;2023-02-15T07:35:23;0.10;99.90
14783;DHT22;7483;50.498;12.138;2023-02-15T07:37:51;0.20;99.90
14783;DHT22;7483;50.498;12.138;2023-02-15T07:40:21;0.20;99.90
14783;DHT22;7483;50.498;12.138;2023-02-15T07:42:50;0.30;99.90
14783;DHT22;7483;50.498;12.138;2023-02-15T07:45:21;0.30;99.90
14783;DHT22;7483;50.498;12.138;2023-02-15T07:47:49;0.40;99.90
14783;DHT22;7483;50.498;12.138;2023-02-15T07:50:17;0.50;99.90
14783;DHT22;7483;50.498;12.138;2023-02-15T07:52:45;0.60;99.90
14783;DHT22;7483;50.498;12.138;2023-02-15T07:55:13;0.60;99.90
14783;DHT22;7483;50.498;12.138;2023-02-15T07:57:44;0.70;99.90
14783;DHT22;7483;50.498;12.138;2023-02-15T08:00:13;0.70;99.90
14783;DHT22;7483;50.498;12.138;2023-02-15T08:02:47;0.80;99.90
14783;DHT22;7483;50.498;12.138;2023-02-15T08:05:15;0.80;99.90
14783;DHT22;7483;50.498;12.138;2023-02-15T08:07:45;0.90;99.90
14783;DHT22;7483;50.498;12.138;2023-02-15T08:10:13;1.00;99.90
14783;DHT22;7483;50.498;12.138;2023-02-15T08:13:02;1.00;99.90
14783;DHT22;7483;50.498;12.138;2023-02-15T08:15:30;1.00;99.90
14783;DHT22;7483;50.498;12.138;2023-02-15T08:17:58;1.10;99.90
14783;DHT22;7483;50.498;12.138;2023-02-15T08:20:26;1.10;99.90
14783;DHT22;7483;50.498;12.138;2023-02-15T08:22:54;1.20;99.90
14783;DHT22;7483;50.498;12.138;2023-02-15T08:25:22;1.20;99.90
14783;DHT22;7483;50.498;12.138;2023-02-15T08:27:50;1.30;99.90
14783;DHT22;7483;50.498;12.138;2023-02-15T08:30:19;1.30;99.90
14783;DHT22;7483;50.498;12.138;2023-02-15T08:32:47;1.40;99.90
14783;DHT22;7483;50.498;12.138;2023-02-15T08:35:15;1.50;99.90
14783;DHT22;7483;50.498;12.138;2023-02-15T08:37:43;1.60;99.90
14783;DHT22;7483;50.498;12.138;2023-02-15T08:40:12;1.70;99.90
14783;DHT22;7483;50.498;12.138;2023-02-15T08:42:40;1.80;99.90
14783;DHT22;7483;50.498;12.138;2023-02-15T08:45:08;1.90;99.90
14783;DHT22;7483;50.498;12.138;2023-02-15T08:47:37;1.90;99.90
14783;DHT22;7483;50.498;12.138;2023-02-15T08:50:06;1.90;99.90
14783;DHT22;7483;50.498;12.138;2023-02-15T08:52:34;2.00;99.90
14783;DHT22;7483;50.498;12.138;2023-02-15T08:55:02;2.00;99.90
14783;DHT22;7483;50.498;12.138;2023-02-15T08:57:31;2.10;99.90
14783;DHT22;7483;50.498;12.138;2023-02-15T08:59:59;2.20;99.90
14783;DHT22;7483;50.498;12.138;2023-02-15T09:02:27;2.30;99.90
14783;DHT22;7483;50.498;12.138;2023-02-15T09:04:56;2.40;99.90
14783;DHT22;7483;50.498;12.138;2023-02-15T09:07:24;2.40;99.90
14783;DHT22;7483;50.498;12.138;2023-02-15T09:09:52;2.50;99.90
14783;DHT22;7483;50.498;12.138;2023-02-15T09:12:20;2.50;99.90
14783;DHT22;7483;50.498;12.138;2023-02-15T09:14:48;2.60;99.90
14783;DHT22;7483;50.498;12.138;2023-02-15T09:17:16;2.70;99.90
14783;DHT22;7483;50.498;12.138;2023-02-15T09:19:44;2.80;99.90
14783;DHT22;7483;50.498;12.138;2023-02-15T09:22:13;2.90;99.90
14783;DHT22;7483;50.498;12.138;2023-02-15T09:24:41;2.90;99.90
14783;DHT22;7483;50.498;12.138;2023-02-15T09:27:09;2.90;99.90
14783;DHT22;7483;50.498;12.138;2023-02-15T09:29:37;3.00;99.90
14783;DHT22;7483;50.498;12.138;2023-02-15T09:32:05;3.10;99.90
14783;DHT22;7483;50.498;12.138;2023-02-15T09:34:33;3.20;99.90
14783;DHT22;7483;50.498;12.138;2023-02-15T09:37:01;3.20;99.90
14783;DHT22;7483;50.498;12.138;2023-02-15T09:39:31;3.40;99.90
14783;DHT22;7483;50.498;12.138;2023-02-15T09:42:34;3.60;99.90
14783;DHT22;7483;50.498;12.138;2023-02-15T09:45:42;3.70;99.90
14783;DHT22;7483;50.498;12.138;2023-02-15T09:48:41;3.90;99.90
14783;DHT22;7483;50.498;12.138;2023-02-15T09:51:27;4.00;99.90
14783;DHT22;7483;50.498;12.138;2023-02-15T09:54:17;4.10;99.90
14783;DHT22;7483;50.498;12.138;2023-02-15T09:56:58;4.20;99.90
14783;DHT22;7483;50.498;12.138;2023-02-15T09:59:36;4.40;99.90
14783;DHT22;7483;50.498;12.138;2023-02-15T10:02:27;4.40;99.90
14783;DHT22;7483;50.498;12.138;2023-02-15T10:05:12;4.50;99.90
14783;DHT22;7483;50.498;12.138;2023-02-15T10:11:14;4.90;99.90
14783;DHT22;7483;50.498;12.138;2023-02-15T10:14:13;5.00;99.90
14783;DHT22;7483;50.498;12.138;2023-02-15T10:16:59;5.10;99.90
14783;DHT22;7483;50.498;12.138;2023-02-15T10:19:39;5.30;99.90
14783;DHT22;7483;50.498;12.138;2023-02-15T10:22:22;5.40;99.90
14783;DHT22;7483;50.498;12.138;2023-02-15T10:25:15;5.50;99.90
14783;DHT22;7483;50.498;12.138;2023-02-15T10:28:04;5.60;99.90
14783;DHT22;7483;50.498;12.138;2023-02-15T10:30:42;5.70;99.90
14783;DHT22;7483;50.498;12.138;2023-02-15T10:33:25;5.80;99.90
14783;DHT22;7483;50.498;12.138;2023-02-15T10:36:11;5.80;99.90
14783;DHT22;7483;50.498;12.138;2023-02-15T10:38:56;5.90;99.90
14783;DHT22;7483;50.498;12.138;2023-02-15T10:41:37;5.90;99.90
14783;DHT22;7483;50.498;12.138;2023-02-15T10:44:28;5.90;99.90
14783;DHT22;7483;50.498;12.138;2023-02-15T10:47:26;6.00;99.90
14783;DHT22;7483;50.498;12.138;2023-02-15T10:50:23;6.10;99.90
14783;DHT22;7483;50.498;12.138;2023-02-15T10:53:08;6.20;99.90
14783;DHT22;7483;50.498;12.138;2023-02-15T10:55:54;6.30;99.90
14783;DHT22;7483;50.498;12.138;2023-02-15T10:58:36;6.40;99.90
14783;DHT22;7483;50.498;12.138;2023-02-15T11:01:18;6.50;99.90
14783;DHT22;7483;50.498;12.138;2023-02-15T11:07:15;6.60;99.90
14783;DHT22;7483;50.498;12.138;2023-02-15T11:09:48;6.70;99.90
14783;DHT22;7483;50.498;12.138;2023-02-15T11:12:22;6.90;99.90
14783;DHT22;7483;50.498;12.138;2023-02-15T11:14:56;6.90;99.90
14783;DHT22;7483;50.498;12.138;2023-02-15T11:17:37;7.00;99.90
14783;DHT22;7483;50.498;12.138;2023-02-15T11:20:17;7.10;99.90
14783;DHT22;7483;50.498;12.138;2023-02-15T11:22:51;7.20;99.90
14783;DHT22;7483;50.498;12.138;2023-02-15T11:25:24;7.20;99.90
14783;DHT22;7483;50.498;12.138;2023-02-15T11:27:56;7.40;99.90
14783;DHT22;7483;50.498;12.138;2023-02-15T11:30:26;7.50;99.90
14783;DHT22;7483;50.498;12.138;2023-02-15T11:33:26;7.60;99.90
14783;DHT22;7483;50.498;12.138;2023-02-15T11:36:09;7.70;99.90
14783;DHT22;7483;50.498;12.138;2023-02-15T11:39:17;7.80;99.90
14783;DHT22;7483;50.498;12.138;2023-02-15T11:41:48;7.80;99.90
14783;DHT22;7483;50.498;12.138;2023-02-15T11:44:23;8.00;99.90
14783;DHT22;7483;50.498;12.138;2023-02-15T11:46:56;8.00;99.90
14783;DHT22;7483;50.498;12.138;2023-02-15T11:49:27;8.10;99.90
14783;DHT22;7483;50.498;12.138;2023-02-15T11:52:01;8.20;99.90
14783;DHT22;7483;50.498;12.138;2023-02-15T11:54:34;8.30;99.90
14783;DHT22;7483;50.498;12.138;2023-02-15T11:57:12;8.50;99.90
14783;DHT22;7483;50.498;12.138;2023-02-15T11:59:46;8.70;99.90
14783;DHT22;7483;50.498;12.138;2023-02-15T12:02:20;8.90;99.90
14783;DHT22;7483;50.498;12.138;2023-02-15T12:04:52;9.10;99.90
14783;DHT22;7483;50.498;12.138;2023-02-15T12:07:28;9.20;99.90
14783;DHT22;7483;50.498;12.138;2023-02-15T12:10:26;9.30;99.90
14783;DHT22;7483;50.498;12.138;2023-02-15T12:13:10;9.50;99.90
14783;DHT22;7483;50.498;12.138;2023-02-15T12:15:41;9.80;99.90
14783;DHT22;7483;50.498;12.138;2023-02-15T12:18:26;10.00;99.90
14783;DHT22;7483;50.498;12.138;2023-02-15T12:21:05;10.30;99.90
14783;DHT22;7483;50.498;12.138;2023-02-15T12:23:43;10.40;99.90
14783;DHT22;7483;50.498;12.138;2023-02-15T12:26:23;10.50;99.90
14783;DHT22;7483;50.498;12.138;2023-02-15T12:28:53;10.60;99.90
14783;DHT22;7483;50.498;12.138;2023-02-15T12:31:27;10.70;99.90
14783;DHT22;7483;50.498;12.138;2023-02-15T12:34:01;11.00;99.90
14783;DHT22;7483;50.498;12.138;2023-02-15T12:36:42;11.10;99.90
14783;DHT22;7483;50.498;12.138;2023-02-15T12:39:20;11.30;99.90
14783;DHT22;7483;50.498;12.138;2023-02-15T12:42:05;11.40;99.90
14783;DHT22;7483;50.498;12.138;2023-02-15T12:44:54;11.70;99.90
14783;DHT22;7483;50.498;12.138;2023-02-15T12:47:23;11.90;99.90
14783;DHT22;7483;50.498;12.138;2023-02-15T12:50:21;12.00;99.90
14783;DHT22;7483;50.498;12.138;2023-02-15T12:53:07;12.10;99.90
14783;DHT22;7483;50.498;12.138;2023-02-15T12:55:37;12.30;99.90
14783;DHT22;7483;50.498;12.138;2023-02-15T12:58:16;12.20;99.90
14783;DHT22;7483;50.498;12.138;2023-02-15T13:00:46;12.20;99.90
14783;DHT22;7483;50.498;12.138;2023-02-15T13:03:17;12.20;99.90
14783;DHT22;7483;50.498;12.138;2023-02-15T13:05:48;11.90;99.90
14783;DHT22;7483;50.498;12.138;2023-02-15T13:08:21;11.70;99.90
14783;DHT22;7483;50.498;12.138;2023-02-15T13:10:57;11.70;99.90
14783;DHT22;7483;50.498;12.138;2023-02-15T13:13:29;11.80;99.90
14783;DHT22;7483;50.498;12.138;2023-02-15T13:16:01;11.80;99.90
14783;DHT22;7483;50.498;12.138;2023-02-15T13:18:33;11.80;99.90
14783;DHT22;7483;50.498;12.138;2023-02-15T13:21:09;11.70;99.90
14783;DHT22;7483;50.498;12.138;2023-02-15T13:23:43;11.90;99.90
14783;DHT22;7483;50.498;12.138;2023-02-15T13:26:19;12.00;99.90
14783;DHT22;7483;50.498;12.138;2023-02-15T13:28:52;11.70;99.90
14783;DHT22;7483;50.498;12.138;2023-02-15T13:31:26;11.70;99.90
14783;DHT22;7483;50.498;12.138;2023-02-15T13:34:02;11.80;99.90
14783;DHT22;7483;50.498;12.138;2023-02-15T13:36:48;11.90;99.90
14783;DHT22;7483;50.498;12.138;2023-02-15T13:39:27;11.80;99.90
14783;DHT22;7483;50.498;12.138;2023-02-15T13:42:14;11.80;99.90
14783;DHT22;7483;50.498;12.138;2023-02-15T13:45:01;11.70;99.90
14783;DHT22;7483;50.498;12.138;2023-02-15T13:47:42;11.80;99.90
14783;DHT22;7483;50.498;12.138;2023-02-15T13:50:29;11.90;99.90
14783;DHT22;7483;50.498;12.138;2023-02-15T13:53:22;11.90;99.90
14783;DHT22;7483;50.498;12.138;2023-02-15T13:56:06;11.80;99.90
14783;DHT22;7483;50.498;12.138;2023-02-15T13:59:02;11.40;99.90
14783;DHT22;7483;50.498;12.138;2023-02-15T14:01:43;11.20;99.90
14783;DHT22;7483;50.498;12.138;2023-02-15T14:07:44;11.20;99.90
14783;DHT22;7483;50.498;12.138;2023-02-15T14:10:30;11.20;99.90
14783;DHT22;7483;50.498;12.138;2023-02-15T14:13:44;11.20;99.90
14783;DHT22;7483;50.498;12.138;2023-02-15T14:16:33;11.10;99.90
14783;DHT22;7483;50.498;12.138;2023-02-15T14:19:15;11.20;99.90
14783;DHT22;7483;50.498;12.138;2023-02-15T14:21:53;11.40;99.90
14783;DHT22;7483;50.498;12.138;2023-02-15T14:24:30;11.20;99.90
14783;DHT22;7483;50.498;12.138;2023-02-15T14:27:12;11.20;99.90
14783;DHT22;7483;50.498;12.138;2023-02-15T14:29:51;11.10;99.90
14783;DHT22;7483;50.498;12.138;2023-02-15T14:32:27;11.00;99.90
14783;DHT22;7483;50.498;12.138;2023-02-15T14:35:03;10.80;99.90
14783;DHT22;7483;50.498;12.138;2023-02-15T14:37:39;10.70;99.90
14783;DHT22;7483;50.498;12.138;2023-02-15T14:40:22;10.60;99.90
14783;DHT22;7483;50.498;12.138;2023-02-15T14:43:23;10.50;99.90
14783;DHT22;7483;50.498;12.138;2023-02-15T14:46:05;10.60;99.90
14783;DHT22;7483;50.498;12.138;2023-02-15T14:48:42;10.60;99.90
14783;DHT22;7483;50.498;12.138;2023-02-15T14:54:54;10.40;99.90
14783;DHT22;7483;50.498;12.138;2023-02-15T14:57:31;10.40;99.90
14783;DHT22;7483;50.498;12.138;2023-02-15T15:00:31;10.30;99.90
14783;DHT22;7483;50.498;12.138;2023-02-15T15:03:18;10.20;99.90
14783;DHT22;7483;50.498;12.138;2023-02-15T15:05:52;10.30;99.90
14783;DHT22;7483;50.498;12.138;2023-02-15T15:08:27;10.20;99.90
14783;DHT22;7483;50.498;12.138;2023-02-15T15:11:38;10.10;99.90
14783;DHT22;7483;50.498;12.138;2023-02-15T15:14:11;10.00;99.90
14783;DHT22;7483;50.498;12.138;2023-02-15T15:17:11;10.00;99.90
14783;DHT22;7483;50.498;12.138;2023-02-15T15:20:05;10.10;99.90
14783;DHT22;7483;50.498;12.138;2023-02-15T15:22:42;9.80;99.90
14783;DHT22;7483;50.498;12.138;2023-02-15T15:25:40;9.80;99.90
14783;DHT22;7483;50.498;12.138;2023-02-15T15:31:31;9.60;99.90
14783;DHT22;7483;50.498;12.138;2023-02-15T15:34:20;9.50;99.90
14783;DHT22;7483;50.498;12.138;2023-02-15T15:40:40;9.30;99.90
14783;DHT22;7483;50.498;12.138;2023-02-15T15:43:40;9.20;99.90
14783;DHT22;7483;50.498;12.138;2023-02-15T15:46:43;9.10;99.90
14783;DHT22;7483;50.498;12.138;2023-02-15T15:49:24;8.90;99.90
14783;DHT22;7483;50.498;12.138;2023-02-15T15:52:00;8.80;99.90
14783;DHT22;7483;50.498;12.138;2023-02-15T15:54:30;8.80;99.90
14783;DHT22;7483;50.498;12.138;2023-02-15T15:57:00;8.70;99.90
14783;DHT22;7483;50.498;12.138;2023-02-15T15:59:32;8.70;99.90
14783;DHT22;7483;50.498;12.138;2023-02-15T16:02:05;8.60;99.90
14783;DHT22;7483;50.498;12.138;2023-02-15T16:04:35;8.50;99.90
14783;DHT22;7483;50.498;12.138;2023-02-15T16:07:16;8.50;99.90
14783;DHT22;7483;50.498;12.138;2023-02-15T16:09:55;8.40;99.90
14783;DHT22;7483;50.498;12.138;2023-02-15T16:12:27;8.40;99.90
14783;DHT22;7483;50.498;12.138;2023-02-15T16:14:57;8.30;99.90
14783;DHT22;7483;50.498;12.138;2023-02-15T16:17:31;8.20;99.90
14783;DHT22;7483;50.498;12.138;2023-02-15T16:20:03;8.10;99.90
14783;DHT22;7483;50.498;12.138;2023-02-15T16:22:35;8.00;99.90
14783;DHT22;7483;50.498;12.138;2023-02-15T16:25:20;7.90;99.90
14783;DHT22;7483;50.498;12.138;2023-02-15T16:28:06;7.80;99.90
14783;DHT22;7483;50.498;12.138;2023-02-15T16:30:37;7.80;99.90
14783;DHT22;7483;50.498;12.138;2023-02-15T16:33:09;7.70;99.90
14783;DHT22;7483;50.498;12.138;2023-02-15T16:35:40;7.60;99.90
14783;DHT22;7483;50.498;12.138;2023-02-15T16:38:21;7.40;99.90
14783;DHT22;7483;50.498;12.138;2023-02-15T16:41:06;7.30;99.90
14783;DHT22;7483;50.498;12.138;2023-02-15T16:43:34;7.20;99.90
14783;DHT22;7483;50.498;12.138;2023-02-15T16:46:06;7.20;99.90
14783;DHT22;7483;50.498;12.138;2023-02-15T16:48:51;7.20;99.90
14783;DHT22;7483;50.498;12.138;2023-02-15T16:51:24;7.00;99.90
14783;DHT22;7483;50.498;12.138;2023-02-15T16:53:56;7.00;99.90